createdAt,value
2022-11-10T00:00:40.398Z,10.00
2022-11-10T00:03:28.227Z,10.00
2022-11-10T00:06:13.659Z,9.90
2022-11-10T00:08:59.117Z,10.00
2022-11-10T00:11:44.562Z,9.80
2022-11-10T00:14:48.625Z,9.90
2022-11-10T00:17:37.654Z,9.80
2022-11-10T00:20:23.090Z,9.90
2022-11-10T00:23:08.712Z,9.90
2022-11-10T00:25:53.863Z,9.80
2022-11-10T00:28:39.308Z,9.90
2022-11-10T00:31:24.761Z,9.90
2022-11-10T00:34:15.546Z,9.80
2022-11-10T00:37:00.912Z,9.80
2022-11-10T00:39:46.282Z,9.80
2022-11-10T00:42:31.811Z,9.80
2022-11-10T00:45:17.205Z,9.70
2022-11-10T00:48:02.751Z,9.80
2022-11-10T00:50:48.077Z,9.80
2022-11-10T00:53:34.495Z,9.80
2022-11-10T00:56:20.526Z,9.80
2022-11-10T00:59:05.605Z,9.80
2022-11-10T01:01:51.040Z,9.80
2022-11-10T01:04:36.471Z,9.90
2022-11-10T01:07:21.882Z,9.90
2022-11-10T01:10:07.849Z,9.90
2022-11-10T01:12:53.388Z,9.80
2022-11-10T01:15:42.703Z,9.70
2022-11-10T01:18:27.910Z,9.60
2022-11-10T01:21:13.221Z,9.70
2022-11-10T01:23:59.348Z,9.70
2022-11-10T01:26:44.666Z,9.70
2022-11-10T01:29:30.154Z,9.60
2022-11-10T01:32:15.670Z,9.50
2022-11-10T01:35:00.935Z,9.50
2022-11-10T01:37:46.380Z,9.50
2022-11-10T01:40:31.860Z,9.50
2022-11-10T01:43:17.239Z,9.60
2022-11-10T01:46:04.387Z,9.60
2022-11-10T01:49:01.341Z,9.60
2022-11-10T01:52:01.793Z,9.60
2022-11-10T01:54:49.672Z,9.70
2022-11-10T01:57:36.788Z,9.60
2022-11-10T02:00:23.270Z,9.50
2022-11-10T02:03:33.283Z,9.60
2022-11-10T02:06:22.318Z,9.60
2022-11-10T02:09:07.866Z,9.60
2022-11-10T02:11:55.121Z,9.50
2022-11-10T02:14:40.614Z,9.60
2022-11-10T02:17:25.742Z,9.50
2022-11-10T02:20:14.188Z,9.60
2022-11-10T02:22:59.740Z,9.50
2022-11-10T02:25:44.889Z,9.60
2022-11-10T02:28:35.058Z,9.60
2022-11-10T02:31:20.119Z,9.60
2022-11-10T02:34:05.608Z,9.50
2022-11-10T02:36:51.079Z,9.60
2022-11-10T02:39:37.275Z,9.60
2022-11-10T02:42:22.748Z,9.50
2022-11-10T02:45:08.771Z,9.60
2022-11-10T02:47:54.246Z,9.60
2022-11-10T02:50:40.420Z,9.50
2022-11-10T02:53:25.964Z,9.40
2022-11-10T02:56:11.370Z,9.50
2022-11-10T02:58:56.705Z,9.60
2022-11-10T03:01:42.463Z,9.60
2022-11-10T03:04:27.695Z,9.40
2022-11-10T03:07:13.229Z,9.50
2022-11-10T03:09:58.518Z,9.60
2022-11-10T03:12:43.993Z,9.50
2022-11-10T03:15:29.854Z,9.50
2022-11-10T03:18:15.132Z,9.50
2022-11-10T03:21:00.605Z,9.50
2022-11-10T03:23:46.098Z,9.60
2022-11-10T03:26:31.518Z,9.50
2022-11-10T03:29:16.966Z,9.60
2022-11-10T03:32:02.369Z,9.50
2022-11-10T03:34:47.808Z,9.60
2022-11-10T03:37:33.272Z,9.50
2022-11-10T03:40:18.749Z,9.40
2022-11-10T03:43:04.232Z,9.50
2022-11-10T03:45:49.671Z,9.40
2022-11-10T03:48:35.106Z,9.40
2022-11-10T03:51:21.434Z,9.40
2022-11-10T03:54:06.534Z,9.50
2022-11-10T03:56:51.871Z,9.40
2022-11-10T03:59:37.324Z,9.30
2022-11-10T04:02:22.715Z,9.30
2022-11-10T04:05:28.309Z,9.30
2022-11-10T04:08:35.102Z,9.30
2022-11-10T04:11:39.224Z,9.30
2022-11-10T04:14:43.110Z,9.40
2022-11-10T04:17:28.619Z,9.30
2022-11-10T04:20:14.131Z,9.30
2022-11-10T04:23:18.151Z,9.30
2022-11-10T04:26:25.570Z,9.20
2022-11-10T04:29:12.135Z,9.30
2022-11-10T04:31:57.635Z,9.30
2022-11-10T04:34:42.865Z,9.20
2022-11-10T04:37:28.247Z,9.20
2022-11-10T04:40:13.572Z,9.20
2022-11-10T04:42:59.290Z,9.10
2022-11-10T04:45:44.980Z,9.10
2022-11-10T04:48:31.203Z,9.10
2022-11-10T04:51:18.383Z,9.10
2022-11-10T04:54:05.513Z,9.20
2022-11-10T04:56:50.722Z,9.20
2022-11-10T04:59:36.155Z,9.10
2022-11-10T05:02:21.653Z,9.00
2022-11-10T05:05:07.574Z,9.10
2022-11-10T05:07:53.210Z,9.10
2022-11-10T05:10:38.822Z,9.10
2022-11-10T05:13:24.463Z,9.10
2022-11-10T05:16:10.205Z,9.10
2022-11-10T05:18:58.049Z,9.20
2022-11-10T05:21:43.399Z,9.20
2022-11-10T05:24:28.748Z,9.30
2022-11-10T05:27:14.103Z,9.30
2022-11-10T05:29:59.528Z,9.10
2022-11-10T05:32:44.881Z,9.20
2022-11-10T05:35:30.731Z,9.20
2022-11-10T05:38:16.470Z,9.20
2022-11-10T05:41:01.764Z,9.30
2022-11-10T05:43:47.381Z,9.20
2022-11-10T05:46:32.494Z,9.30
2022-11-10T05:49:18.045Z,9.20
2022-11-10T05:52:03.556Z,9.30
2022-11-10T05:54:49.048Z,9.20
2022-11-10T05:57:34.437Z,9.20
2022-11-10T06:00:24.807Z,9.10
2022-11-10T06:03:16.220Z,9.10
2022-11-10T06:06:01.669Z,9.20
2022-11-10T06:08:47.101Z,9.20
2022-11-10T06:11:32.574Z,9.20
2022-11-10T06:14:17.945Z,9.10
2022-11-10T06:17:03.294Z,9.10
2022-11-10T06:19:48.657Z,9.00
2022-11-10T06:22:34.162Z,9.10
2022-11-10T06:25:19.775Z,9.00
2022-11-10T06:28:06.101Z,9.00
2022-11-10T06:30:51.450Z,8.90
2022-11-10T06:33:37.019Z,9.00
2022-11-10T06:36:22.778Z,9.00
2022-11-10T06:39:09.090Z,9.00
2022-11-10T06:41:54.384Z,9.10
2022-11-10T06:44:39.699Z,9.10
2022-11-10T06:47:25.372Z,9.10
2022-11-10T06:50:10.632Z,9.00
2022-11-10T06:52:56.944Z,9.10
2022-11-10T06:55:42.347Z,9.00
2022-11-10T06:58:27.717Z,9.10
2022-11-10T07:01:13.273Z,9.00
2022-11-10T07:04:18.843Z,9.00
2022-11-10T07:07:04.282Z,9.00
2022-11-10T07:09:49.770Z,9.10
2022-11-10T07:12:35.301Z,9.00
2022-11-10T07:15:20.670Z,9.10
2022-11-10T07:18:06.239Z,9.00
2022-11-10T07:20:51.630Z,9.10
2022-11-10T07:23:37.263Z,9.10
2022-11-10T07:26:22.681Z,9.20
2022-11-10T07:29:08.037Z,9.20
2022-11-10T07:31:53.764Z,9.20
2022-11-10T07:34:38.846Z,9.20
2022-11-10T07:37:24.460Z,9.20
2022-11-10T07:40:10.350Z,9.30
2022-11-10T07:42:55.731Z,9.20
2022-11-10T07:45:41.261Z,9.20
2022-11-10T07:48:26.659Z,9.30
2022-11-10T07:51:12.101Z,9.30
2022-11-10T07:53:57.551Z,9.30
2022-11-10T07:56:43.758Z,9.50
2022-11-10T07:59:28.910Z,9.50
2022-11-10T08:02:14.361Z,9.60
2022-11-10T08:04:59.847Z,9.70
2022-11-10T08:07:45.229Z,9.80
2022-11-10T08:10:31.568Z,9.80
2022-11-10T08:13:17.066Z,9.90
2022-11-10T08:16:03.116Z,10.00
2022-11-10T08:18:48.423Z,10.10
2022-11-10T08:21:33.942Z,10.20
2022-11-10T08:24:19.222Z,10.30
2022-11-10T08:27:04.562Z,10.40
2022-11-10T08:29:50.085Z,10.50
2022-11-10T08:32:35.529Z,10.60
2022-11-10T08:35:20.922Z,10.70
2022-11-10T08:38:09.694Z,10.70
2022-11-10T08:40:57.449Z,10.80
2022-11-10T08:43:43.312Z,10.90
2022-11-10T08:46:28.800Z,11.00
2022-11-10T08:49:14.610Z,11.10
2022-11-10T08:52:00.371Z,11.20
2022-11-10T08:54:46.193Z,11.20
2022-11-10T08:57:31.326Z,11.20
2022-11-10T09:00:17.488Z,11.30
2022-11-10T09:03:12.494Z,11.50
2022-11-10T09:05:58.855Z,11.70
2022-11-10T09:08:44.376Z,12.00
2022-11-10T09:11:30.703Z,12.20
2022-11-10T09:14:16.111Z,12.30
2022-11-10T09:17:01.559Z,12.60
2022-11-10T09:19:46.973Z,12.70
2022-11-10T09:22:32.425Z,13.00
2022-11-10T09:25:17.895Z,13.20
2022-11-10T09:28:03.759Z,13.20
2022-11-10T09:30:50.720Z,13.60
2022-11-10T09:33:38.738Z,13.70
2022-11-10T09:36:24.161Z,13.80
2022-11-10T09:39:09.530Z,13.80
2022-11-10T09:41:54.911Z,14.00
2022-11-10T09:44:52.030Z,13.90
2022-11-10T09:48:01.669Z,14.10
2022-11-10T09:50:58.233Z,14.00
2022-11-10T09:53:55.010Z,14.20
2022-11-10T09:56:41.585Z,14.20
2022-11-10T09:59:29.725Z,14.40
2022-11-10T10:02:37.955Z,14.60
2022-11-10T10:05:53.378Z,15.20
2022-11-10T10:09:04.788Z,15.00
2022-11-10T10:12:03.724Z,15.00
2022-11-10T10:15:17.147Z,14.80
2022-11-10T10:18:39.768Z,14.80
2022-11-10T10:21:42.598Z,15.10
2022-11-10T10:24:30.129Z,15.00
2022-11-10T10:27:26.765Z,14.90
2022-11-10T10:30:14.700Z,14.90
2022-11-10T10:33:21.837Z,15.10
2022-11-10T10:36:30.615Z,15.10
2022-11-10T10:39:30.729Z,15.30
2022-11-10T10:42:29.311Z,15.30
2022-11-10T10:45:28.681Z,15.40
2022-11-10T10:48:29.358Z,15.50
2022-11-10T10:51:30.838Z,15.70
2022-11-10T10:54:29.638Z,15.60
2022-11-10T10:57:24.917Z,15.30
2022-11-10T11:00:23.669Z,15.50
2022-11-10T11:03:39.857Z,15.70
2022-11-10T11:06:27.656Z,15.90
2022-11-10T11:09:42.898Z,15.90
2022-11-10T11:12:31.495Z,15.80
2022-11-10T11:15:30.278Z,15.60
2022-11-10T11:18:20.583Z,15.50
2022-11-10T11:21:34.658Z,15.40
2022-11-10T11:24:48.494Z,15.00
2022-11-10T11:27:46.415Z,15.00
2022-11-10T11:31:11.822Z,15.20
2022-11-10T11:34:28.854Z,15.30
2022-11-10T11:37:21.152Z,15.10
2022-11-10T11:40:40.480Z,15.20
2022-11-10T11:43:44.754Z,15.10
2022-11-10T11:46:49.292Z,15.20
2022-11-10T11:50:13.587Z,15.20
2022-11-10T11:53:25.171Z,15.30
2022-11-10T11:56:20.994Z,15.20
2022-11-10T11:59:24.436Z,15.30
2022-11-10T12:02:33.990Z,15.10
2022-11-10T12:05:32.010Z,15.10
2022-11-10T12:08:46.824Z,15.10
2022-11-10T12:11:41.865Z,15.10
2022-11-10T12:14:39.242Z,15.10
2022-11-10T12:17:49.569Z,15.00
2022-11-10T12:20:43.651Z,15.00
2022-11-10T12:23:42.336Z,15.10
2022-11-10T12:26:59.722Z,15.10
2022-11-10T12:29:55.300Z,15.00
2022-11-10T12:32:49.002Z,15.00
2022-11-10T12:35:38.365Z,15.00
2022-11-10T12:38:44.735Z,15.10
2022-11-10T12:41:43.679Z,15.20
2022-11-10T12:44:36.952Z,15.40
2022-11-10T12:47:25.783Z,15.60
2022-11-10T12:50:32.395Z,15.40
2022-11-10T12:53:24.861Z,15.40
2022-11-10T12:56:22.526Z,15.30
2022-11-10T12:59:19.797Z,15.30
2022-11-10T13:02:22.139Z,15.20
2022-11-10T13:05:13.826Z,15.10
2022-11-10T13:08:34.520Z,15.10
2022-11-10T13:11:27.725Z,15.10
2022-11-10T13:14:39.342Z,15.10
2022-11-10T13:17:27.968Z,15.10
2022-11-10T13:20:46.751Z,15.10
2022-11-10T13:23:37.713Z,15.10
2022-11-10T13:27:07.689Z,15.00
2022-11-10T13:29:55.842Z,15.10
2022-11-10T13:32:41.246Z,15.10
2022-11-10T13:35:29.666Z,15.10
2022-11-10T13:38:33.360Z,15.10
2022-11-10T13:41:25.233Z,15.20
2022-11-10T13:44:37.738Z,15.10
2022-11-10T13:47:46.194Z,15.10
2022-11-10T13:51:09.192Z,15.10
2022-11-10T13:54:13.250Z,15.10
2022-11-10T13:57:37.313Z,15.00
2022-11-10T14:00:29.894Z,15.00
2022-11-10T14:03:47.813Z,15.00
2022-11-10T14:06:49.353Z,15.00
2022-11-10T14:09:39.834Z,14.90
2022-11-10T14:12:41.467Z,14.80
2022-11-10T14:15:48.171Z,14.80
2022-11-10T14:18:42.873Z,14.70
2022-11-10T14:21:58.325Z,14.70
2022-11-10T14:25:14.012Z,14.70
2022-11-10T14:27:59.281Z,14.70
2022-11-10T14:30:51.677Z,14.60
2022-11-10T14:33:37.001Z,14.70
2022-11-10T14:36:23.090Z,14.70
2022-11-10T14:39:08.294Z,14.70
2022-11-10T14:41:54.237Z,14.60
2022-11-10T14:44:39.975Z,14.70
2022-11-10T14:47:26.877Z,14.50
2022-11-10T14:50:16.048Z,14.50
2022-11-10T14:53:16.266Z,14.50
2022-11-10T14:56:04.177Z,14.40
2022-11-10T14:58:50.254Z,14.30
2022-11-10T15:01:38.862Z,14.30
2022-11-10T15:04:31.601Z,14.20
2022-11-10T15:07:17.969Z,14.20
2022-11-10T15:10:16.151Z,14.10
2022-11-10T15:13:11.683Z,14.10
2022-11-10T15:16:21.877Z,14.00
2022-11-10T15:19:36.373Z,14.00
2022-11-10T15:22:21.487Z,13.90
2022-11-10T15:25:19.437Z,13.90
2022-11-10T15:28:14.157Z,13.80
2022-11-10T15:31:05.517Z,13.70
2022-11-10T15:33:54.217Z,13.60
2022-11-10T15:36:41.937Z,13.50
2022-11-10T15:39:28.100Z,13.50
2022-11-10T15:42:24.675Z,13.50
2022-11-10T15:45:11.637Z,13.40
2022-11-10T15:47:57.099Z,13.40
2022-11-10T15:50:45.282Z,13.40
2022-11-10T15:53:32.906Z,13.30
2022-11-10T15:56:23.034Z,13.20
2022-11-10T15:59:10.253Z,13.30
2022-11-10T16:01:55.685Z,13.20
2022-11-10T16:04:40.898Z,13.10
2022-11-10T16:07:26.517Z,13.10
2022-11-10T16:10:11.690Z,13.00
2022-11-10T16:12:57.170Z,12.90
2022-11-10T16:15:44.888Z,12.90
2022-11-10T16:18:30.989Z,12.90
2022-11-10T16:21:22.285Z,12.80
2022-11-10T16:24:07.502Z,12.80
2022-11-10T16:26:53.349Z,12.80
2022-11-10T16:29:39.527Z,12.70
2022-11-10T16:32:24.828Z,12.70
2022-11-10T16:35:14.274Z,12.70
2022-11-10T16:37:59.900Z,12.60
2022-11-10T16:40:52.062Z,12.60
2022-11-10T16:43:37.346Z,12.60
2022-11-10T16:46:28.914Z,12.50
2022-11-10T16:49:34.024Z,12.40
2022-11-10T16:52:21.284Z,12.30
2022-11-10T16:55:10.496Z,12.30
2022-11-10T16:57:55.994Z,12.20
2022-11-10T17:00:42.045Z,12.30
2022-11-10T17:03:42.871Z,12.20
2022-11-10T17:06:29.788Z,12.10
2022-11-10T17:09:23.235Z,12.10
2022-11-10T17:12:12.620Z,12.10
2022-11-10T17:14:58.074Z,12.20
2022-11-10T17:17:50.601Z,12.20
2022-11-10T17:20:38.837Z,12.20
2022-11-10T17:23:25.983Z,12.10
2022-11-10T17:26:14.241Z,12.10
2022-11-10T17:28:59.978Z,12.10
2022-11-10T17:31:45.798Z,12.10
2022-11-10T17:34:30.989Z,12.10
2022-11-10T17:37:17.639Z,12.10
2022-11-10T17:40:27.820Z,12.10
2022-11-10T17:43:14.237Z,12.00
2022-11-10T17:45:59.681Z,12.00
2022-11-10T17:48:47.487Z,12.00
2022-11-10T17:51:34.163Z,11.90
2022-11-10T17:54:19.507Z,11.90
2022-11-10T17:57:05.922Z,11.80
2022-11-10T17:59:51.166Z,11.70
2022-11-10T18:02:36.715Z,11.60
2022-11-10T18:05:22.198Z,11.60
2022-11-10T18:08:07.823Z,11.60
2022-11-10T18:10:53.384Z,11.40
2022-11-10T18:13:43.598Z,11.30
2022-11-10T18:16:28.800Z,11.40
2022-11-10T18:19:14.215Z,11.50
2022-11-10T18:21:59.650Z,11.50
2022-11-10T18:24:45.243Z,11.40
2022-11-10T18:27:31.637Z,11.40
2022-11-10T18:30:18.235Z,11.40
2022-11-10T18:33:04.297Z,11.40
2022-11-10T18:35:49.658Z,11.30
2022-11-10T18:38:35.797Z,11.30
2022-11-10T18:41:39.477Z,11.30
2022-11-10T18:44:24.858Z,11.20
2022-11-10T18:47:12.254Z,11.20
2022-11-10T18:49:57.805Z,11.20
2022-11-10T18:52:43.797Z,11.30
2022-11-10T18:55:28.826Z,11.30
2022-11-10T18:58:14.399Z,11.40
2022-11-10T19:01:07.739Z,11.50
2022-11-10T19:03:53.266Z,11.40
2022-11-10T19:06:38.805Z,11.20
2022-11-10T19:09:23.926Z,11.20
2022-11-10T19:12:09.344Z,11.20
2022-11-10T19:14:54.824Z,11.10
2022-11-10T19:17:40.201Z,11.10
2022-11-10T19:20:25.454Z,11.10
2022-11-10T19:23:10.966Z,11.10
2022-11-10T19:26:23.304Z,11.00
2022-11-10T19:29:08.588Z,11.00
2022-11-10T19:31:54.072Z,11.00
2022-11-10T19:34:39.539Z,11.00
2022-11-10T19:37:24.728Z,11.10
2022-11-10T19:40:13.337Z,11.10
2022-11-10T19:42:58.644Z,11.10
2022-11-10T19:45:44.330Z,11.00
2022-11-10T19:48:32.195Z,10.90
2022-11-10T19:51:19.042Z,11.00
2022-11-10T19:54:05.995Z,11.00
2022-11-10T19:56:51.501Z,11.00
2022-11-10T19:59:37.536Z,11.00
2022-11-10T20:02:23.510Z,11.10
2022-11-10T20:05:16.604Z,11.00
2022-11-10T20:08:12.934Z,11.00
2022-11-10T20:11:02.805Z,11.00
2022-11-10T20:13:53.344Z,11.00
2022-11-10T20:16:40.011Z,10.90
2022-11-10T20:19:25.508Z,11.00
2022-11-10T20:22:12.634Z,11.00
2022-11-10T20:24:57.727Z,10.90
2022-11-10T20:27:43.088Z,11.00
2022-11-10T20:30:28.465Z,10.90
2022-11-10T20:33:13.917Z,10.90
2022-11-10T20:36:07.969Z,10.90
2022-11-10T20:38:55.045Z,10.90
2022-11-10T20:41:41.181Z,10.80
2022-11-10T20:44:26.503Z,10.80
2022-11-10T20:47:12.046Z,10.80
2022-11-10T20:49:57.443Z,10.80
2022-11-10T20:52:42.918Z,10.80
2022-11-10T20:55:52.174Z,10.70
2022-11-10T20:58:34.309Z,10.60
2022-11-10T21:01:20.167Z,10.60
2022-11-10T21:04:06.167Z,10.60
2022-11-10T21:06:51.297Z,10.60
2022-11-10T21:09:36.843Z,10.70
2022-11-10T21:12:40.875Z,10.60
2022-11-10T21:15:26.325Z,10.60
2022-11-10T21:18:11.947Z,10.60
2022-11-10T21:20:57.574Z,10.60
2022-11-10T21:23:42.980Z,10.60
2022-11-10T21:26:28.548Z,10.60
2022-11-10T21:29:13.930Z,10.50
2022-11-10T21:31:59.413Z,10.50
2022-11-10T21:34:47.060Z,10.50
2022-11-10T21:37:32.222Z,10.50
2022-11-10T21:40:17.843Z,10.50
2022-11-10T21:43:03.571Z,10.50
2022-11-10T21:45:48.740Z,10.60
2022-11-10T21:48:37.452Z,10.70
2022-11-10T21:51:22.645Z,10.70
2022-11-10T21:54:10.355Z,10.80
2022-11-10T21:56:55.647Z,10.70
2022-11-10T21:59:41.269Z,10.70
2022-11-10T22:02:26.858Z,10.70
2022-11-10T22:05:12.289Z,10.70
2022-11-10T22:07:57.855Z,10.70
2022-11-10T22:11:09.286Z,10.70
2022-11-10T22:14:13.265Z,10.70
2022-11-10T22:17:18.463Z,10.60
2022-11-10T22:20:03.939Z,10.70
2022-11-10T22:22:50.122Z,10.70
2022-11-10T22:25:35.558Z,10.60
2022-11-10T22:28:21.149Z,10.60
2022-11-10T22:31:08.492Z,10.60
2022-11-10T22:33:53.868Z,10.60
2022-11-10T22:36:39.313Z,10.60
2022-11-10T22:39:44.948Z,10.50
2022-11-10T22:42:48.814Z,10.60
2022-11-10T22:45:34.204Z,10.60
2022-11-10T22:48:28.599Z,10.60
2022-11-10T22:51:13.844Z,10.50
2022-11-10T22:54:00.112Z,10.50
2022-11-10T22:56:45.793Z,10.50
2022-11-10T22:59:31.129Z,10.50
2022-11-10T23:02:16.442Z,10.50
2022-11-10T23:05:01.882Z,10.50
2022-11-10T23:07:48.422Z,10.50
2022-11-10T23:10:33.827Z,10.50
2022-11-10T23:13:19.226Z,10.50
2022-11-10T23:16:07.457Z,10.60
2022-11-10T23:18:54.408Z,10.50
2022-11-10T23:21:39.882Z,10.50
2022-11-10T23:24:25.348Z,10.50
2022-11-10T23:27:10.661Z,10.40
2022-11-10T23:29:56.148Z,10.40
2022-11-10T23:32:41.591Z,10.40
2022-11-10T23:35:26.898Z,10.30
2022-11-10T23:38:12.517Z,10.20
2022-11-10T23:40:59.287Z,10.30
2022-11-10T23:43:45.546Z,10.20
2022-11-10T23:46:30.681Z,10.30
2022-11-10T23:49:16.288Z,10.30
2022-11-10T23:52:01.643Z,10.20
2022-11-10T23:54:47.496Z,10.20
2022-11-10T23:57:32.706Z,10.40
